sensor_id;sensor_type;location;lat;lon;timestamp;pressure;altitude;pressure_sealevel;temperature;humidity
31346;BME280;21711;49.708;18.568;2023-02-12T00:01:25;98606.69;;;3.11;100.00
31346;BME280;21711;49.708;18.568;2023-02-12T00:03:55;98608.94;;;3.21;100.00
31346;BME280;21711;49.708;18.568;2023-02-12T00:06:23;98612.19;;;3.23;100.00
31346;BME280;21711;49.708;18.568;2023-02-12T00:08:52;98607.59;;;3.32;100.00
31346;BME280;21711;49.708;18.568;2023-02-12T00:11:24;98608.66;;;3.38;100.00
31346;BME280;21711;49.708;18.568;2023-02-12T00:13:54;98600.56;;;3.33;100.00
31346;BME280;21711;49.708;18.568;2023-02-12T00:16:25;98593.34;;;3.35;100.00
31346;BME280;21711;49.708;18.568;2023-02-12T00:18:55;98609.31;;;3.18;100.00
31346;BME280;21711;49.708;18.568;2023-02-12T00:21:23;98615.31;;;3.40;100.00
31346;BME280;21711;49.708;18.568;2023-02-12T00:23:51;98607.97;;;3.29;100.00
31346;BME280;21711;49.708;18.568;2023-02-12T00:26:20;98607.59;;;3.32;100.00
31346;BME280;21711;49.708;18.568;2023-02-12T00:28:50;98612.19;;;3.30;100.00
31346;BME280;21711;49.708;18.568;2023-02-12T00:31:24;98614.91;;;3.44;100.00
31346;BME280;21711;49.708;18.568;2023-02-12T00:33:55;98617.03;;;3.62;100.00
31346;BME280;21711;49.708;18.568;2023-02-12T00:36:26;98622.22;;;3.55;100.00
31346;BME280;21711;49.708;18.568;2023-02-12T00:38:54;98625.84;;;3.61;100.00
31346;BME280;21711;49.708;18.568;2023-02-12T00:41:24;98632.00;;;3.46;100.00
31346;BME280;21711;49.708;18.568;2023-02-12T00:43:52;98627.59;;;3.47;100.00
31346;BME280;21711;49.708;18.568;2023-02-12T00:46:19;98629.22;;;3.48;100.00
31346;BME280;21711;49.708;18.568;2023-02-12T00:48:46;98639.44;;;3.42;100.00
31346;BME280;21711;49.708;18.568;2023-02-12T00:51:14;98633.13;;;3.65;100.00
31346;BME280;21711;49.708;18.568;2023-02-12T00:53:42;98636.09;;;3.55;100.00
31346;BME280;21711;49.708;18.568;2023-02-12T00:56:09;98627.72;;;3.67;100.00
31346;BME280;21711;49.708;18.568;2023-02-12T00:58:36;98631.22;;;3.46;100.00
31346;BME280;21711;49.708;18.568;2023-02-12T01:01:05;98627.88;;;3.30;100.00
31346;BME280;21711;49.708;18.568;2023-02-12T01:03:35;98621.91;;;3.36;100.00
31346;BME280;21711;49.708;18.568;2023-02-12T01:06:02;98626.78;;;3.46;100.00
31346;BME280;21711;49.708;18.568;2023-02-12T01:08:29;98626.75;;;3.39;100.00
31346;BME280;21711;49.708;18.568;2023-02-12T01:11:00;98635.13;;;3.57;100.00
31346;BME280;21711;49.708;18.568;2023-02-12T01:13:29;98638.34;;;3.59;100.00
31346;BME280;21711;49.708;18.568;2023-02-12T01:16:12;98635.72;;;3.30;100.00
31346;BME280;21711;49.708;18.568;2023-02-12T01:18:40;98641.00;;;3.37;100.00
31346;BME280;21711;49.708;18.568;2023-02-12T01:21:18;98638.44;;;3.44;100.00
31346;BME280;21711;49.708;18.568;2023-02-12T01:23:47;98638.94;;;3.61;100.00
31346;BME280;21711;49.708;18.568;2023-02-12T01:26:16;98636.81;;;3.42;100.00
31346;BME280;21711;49.708;18.568;2023-02-12T01:28:49;98637.88;;;3.20;100.00
31346;BME280;21711;49.708;18.568;2023-02-12T01:31:20;98642.44;;;3.39;100.00
31346;BME280;21711;49.708;18.568;2023-02-12T01:33:51;98644.22;;;3.32;100.00
31346;BME280;21711;49.708;18.568;2023-02-12T01:36:21;98648.16;;;3.50;100.00
31346;BME280;21711;49.708;18.568;2023-02-12T01:38:49;98650.53;;;3.45;100.00
31346;BME280;21711;49.708;18.568;2023-02-12T01:41:24;98657.47;;;3.59;100.00
31346;BME280;21711;49.708;18.568;2023-02-12T01:44:18;98658.03;;;3.54;100.00
31346;BME280;21711;49.708;18.568;2023-02-12T01:46:58;98655.50;;;3.68;100.00
31346;BME280;21711;49.708;18.568;2023-02-12T01:52:22;98656.66;;;3.59;100.00
31346;BME280;21711;49.708;18.568;2023-02-12T01:54:57;98660.22;;;3.51;100.00
31346;BME280;21711;49.708;18.568;2023-02-12T01:57:28;98665.09;;;3.61;100.00
31346;BME280;21711;49.708;18.568;2023-02-12T01:59:58;98668.91;;;3.58;100.00
31346;BME280;21711;49.708;18.568;2023-02-12T02:02:27;98670.59;;;3.66;100.00
31346;BME280;21711;49.708;18.568;2023-02-12T02:05:01;98669.41;;;3.75;100.00
31346;BME280;21711;49.708;18.568;2023-02-12T02:07:30;98666.50;;;3.57;100.00
31346;BME280;21711;49.708;18.568;2023-02-12T02:09:58;98673.94;;;3.60;100.00
31346;BME280;21711;49.708;18.568;2023-02-12T02:12:27;98667.75;;;3.67;100.00
31346;BME280;21711;49.708;18.568;2023-02-12T02:15:16;98676.47;;;3.75;100.00
31346;BME280;21711;49.708;18.568;2023-02-12T02:18:11;98684.63;;;3.93;100.00
31346;BME280;21711;49.708;18.568;2023-02-12T02:24:10;98684.75;;;3.85;100.00
31346;BME280;21711;49.708;18.568;2023-02-12T02:35:40;98705.06;;;3.76;100.00
31346;BME280;21711;49.708;18.568;2023-02-12T02:38:33;98708.00;;;4.02;100.00
31346;BME280;21711;49.708;18.568;2023-02-12T02:41:26;98699.47;;;3.86;100.00
31346;BME280;21711;49.708;18.568;2023-02-12T02:43:55;98707.34;;;3.93;100.00
31346;BME280;21711;49.708;18.568;2023-02-12T02:46:31;98711.69;;;3.72;100.00
31346;BME280;21711;49.708;18.568;2023-02-12T02:49:08;98713.13;;;3.81;100.00
31346;BME280;21711;49.708;18.568;2023-02-12T02:51:42;98710.63;;;4.02;100.00
31346;BME280;21711;49.708;18.568;2023-02-12T02:54:31;98700.06;;;3.81;100.00
31346;BME280;21711;49.708;18.568;2023-02-12T02:57:24;98702.75;;;3.95;100.00
31346;BME280;21711;49.708;18.568;2023-02-12T03:00:17;98710.91;;;3.78;100.00
31346;BME280;21711;49.708;18.568;2023-02-12T03:02:57;98715.94;;;3.51;100.00
31346;BME280;21711;49.708;18.568;2023-02-12T03:05:32;98714.59;;;3.91;100.00
31346;BME280;21711;49.708;18.568;2023-02-12T03:11:25;98715.97;;;3.87;100.00
31346;BME280;21711;49.708;18.568;2023-02-12T03:14:25;98723.09;;;4.00;100.00
31346;BME280;21711;49.708;18.568;2023-02-12T03:17:21;98729.16;;;4.00;100.00
31346;BME280;21711;49.708;18.568;2023-02-12T03:20:06;98733.09;;;3.89;100.00
31346;BME280;21711;49.708;18.568;2023-02-12T03:22:37;98740.41;;;4.01;100.00
31346;BME280;21711;49.708;18.568;2023-02-12T03:25:12;98736.09;;;3.86;100.00
31346;BME280;21711;49.708;18.568;2023-02-12T03:28:05;98747.56;;;3.85;100.00
31346;BME280;21711;49.708;18.568;2023-02-12T03:30:50;98736.00;;;4.01;100.00
31346;BME280;21711;49.708;18.568;2023-02-12T03:43:03;98761.34;;;4.01;100.00
31346;BME280;21711;49.708;18.568;2023-02-12T03:45:59;98755.66;;;3.90;100.00
31346;BME280;21711;49.708;18.568;2023-02-12T03:53:49;98794.78;;;3.99;100.00
31346;BME280;21711;49.708;18.568;2023-02-12T03:56:31;98791.47;;;4.18;100.00
31346;BME280;21711;49.708;18.568;2023-02-12T03:58:59;98791.06;;;4.15;100.00
31346;BME280;21711;49.708;18.568;2023-02-12T04:01:27;98806.56;;;4.16;100.00
31346;BME280;21711;49.708;18.568;2023-02-12T04:03:55;98814.00;;;4.13;100.00
31346;BME280;21711;49.708;18.568;2023-02-12T04:06:25;98805.94;;;4.14;100.00
31346;BME280;21711;49.708;18.568;2023-02-12T04:08:58;98807.31;;;4.10;100.00
31346;BME280;21711;49.708;18.568;2023-02-12T04:20:44;98801.63;;;4.00;100.00
31346;BME280;21711;49.708;18.568;2023-02-12T04:34:46;98832.41;;;4.26;100.00
31346;BME280;21711;49.708;18.568;2023-02-12T04:37:30;98820.88;;;4.20;100.00
31346;BME280;21711;49.708;18.568;2023-02-12T04:40:05;98833.97;;;4.20;100.00
31346;BME280;21711;49.708;18.568;2023-02-12T04:42:47;98837.00;;;4.17;100.00
31346;BME280;21711;49.708;18.568;2023-02-12T04:45:28;98835.63;;;4.21;100.00
31346;BME280;21711;49.708;18.568;2023-02-12T04:47:56;98828.03;;;4.05;100.00
31346;BME280;21711;49.708;18.568;2023-02-12T04:50:24;98840.22;;;4.19;100.00
31346;BME280;21711;49.708;18.568;2023-02-12T04:52:51;98838.19;;;4.15;100.00
31346;BME280;21711;49.708;18.568;2023-02-12T04:55:19;98840.44;;;4.25;100.00
31346;BME280;21711;49.708;18.568;2023-02-12T04:57:47;98844.31;;;4.29;100.00
31346;BME280;21711;49.708;18.568;2023-02-12T05:00:15;98851.88;;;4.17;100.00
31346;BME280;21711;49.708;18.568;2023-02-12T05:02:42;98856.75;;;4.20;100.00
31346;BME280;21711;49.708;18.568;2023-02-12T05:05:09;98852.44;;;4.05;100.00
31346;BME280;21711;49.708;18.568;2023-02-12T05:07:37;98860.94;;;4.14;100.00
31346;BME280;21711;49.708;18.568;2023-02-12T05:10:05;98861.53;;;4.10;100.00
31346;BME280;21711;49.708;18.568;2023-02-12T05:12:33;98867.06;;;4.00;100.00
31346;BME280;21711;49.708;18.568;2023-02-12T05:15:00;98874.78;;;4.08;100.00
31346;BME280;21711;49.708;18.568;2023-02-12T05:17:27;98875.13;;;3.98;100.00
31346;BME280;21711;49.708;18.568;2023-02-12T05:19:55;98885.63;;;4.05;100.00
31346;BME280;21711;49.708;18.568;2023-02-12T05:22:22;98881.13;;;3.92;100.00
31346;BME280;21711;49.708;18.568;2023-02-12T05:24:49;98888.03;;;4.00;100.00
31346;BME280;21711;49.708;18.568;2023-02-12T05:27:16;98891.16;;;4.17;100.00
31346;BME280;21711;49.708;18.568;2023-02-12T05:29:43;98893.72;;;4.10;100.00
31346;BME280;21711;49.708;18.568;2023-02-12T05:32:11;98901.09;;;4.21;100.00
31346;BME280;21711;49.708;18.568;2023-02-12T05:34:38;98905.97;;;4.31;100.00
31346;BME280;21711;49.708;18.568;2023-02-12T05:37:05;98909.06;;;4.42;100.00
31346;BME280;21711;49.708;18.568;2023-02-12T05:39:33;98921.69;;;4.31;100.00
31346;BME280;21711;49.708;18.568;2023-02-12T05:42:00;98923.31;;;4.32;100.00
31346;BME280;21711;49.708;18.568;2023-02-12T05:44:27;98932.16;;;4.31;100.00
31346;BME280;21711;49.708;18.568;2023-02-12T05:46:54;98930.56;;;4.30;100.00
31346;BME280;21711;49.708;18.568;2023-02-12T05:49:21;98930.38;;;4.32;100.00
31346;BME280;21711;49.708;18.568;2023-02-12T05:51:49;98931.78;;;4.34;100.00
31346;BME280;21711;49.708;18.568;2023-02-12T05:54:16;98943.47;;;4.32;100.00
31346;BME280;21711;49.708;18.568;2023-02-12T05:56:46;98946.63;;;4.27;100.00
31346;BME280;21711;49.708;18.568;2023-02-12T05:59:21;98945.25;;;4.31;100.00
31346;BME280;21711;49.708;18.568;2023-02-12T06:01:50;98952.94;;;4.33;100.00
31346;BME280;21711;49.708;18.568;2023-02-12T06:04:25;98958.53;;;4.30;100.00
31346;BME280;21711;49.708;18.568;2023-02-12T06:06:54;98959.59;;;4.36;100.00
31346;BME280;21711;49.708;18.568;2023-02-12T06:09:23;98965.91;;;4.41;100.00
31346;BME280;21711;49.708;18.568;2023-02-12T06:11:50;98958.03;;;4.41;100.00
31346;BME280;21711;49.708;18.568;2023-02-12T06:14:19;98964.72;;;4.44;100.00
31346;BME280;21711;49.708;18.568;2023-02-12T06:16:49;98969.41;;;4.55;100.00
31346;BME280;21711;49.708;18.568;2023-02-12T06:19:18;98975.47;;;4.56;100.00
31346;BME280;21711;49.708;18.568;2023-02-12T06:21:46;98978.88;;;4.50;100.00
31346;BME280;21711;49.708;18.568;2023-02-12T06:24:16;98979.72;;;4.57;100.00
31346;BME280;21711;49.708;18.568;2023-02-12T06:26:44;98983.75;;;4.59;100.00
31346;BME280;21711;49.708;18.568;2023-02-12T06:29:11;98982.56;;;4.62;100.00
31346;BME280;21711;49.708;18.568;2023-02-12T06:31:39;98986.66;;;4.43;100.00
31346;BME280;21711;49.708;18.568;2023-02-12T06:34:09;98996.16;;;4.44;100.00
31346;BME280;21711;49.708;18.568;2023-02-12T06:36:40;98990.31;;;4.48;100.00
31346;BME280;21711;49.708;18.568;2023-02-12T06:39:09;98999.13;;;4.41;100.00
31346;BME280;21711;49.708;18.568;2023-02-12T06:41:37;99000.56;;;4.43;100.00
31346;BME280;21711;49.708;18.568;2023-02-12T06:44:05;99008.78;;;4.62;100.00
31346;BME280;21711;49.708;18.568;2023-02-12T06:46:59;99005.41;;;4.68;100.00
31346;BME280;21711;49.708;18.568;2023-02-12T06:49:51;99013.91;;;4.77;100.00
31346;BME280;21711;49.708;18.568;2023-02-12T06:52:18;99013.50;;;4.73;100.00
31346;BME280;21711;49.708;18.568;2023-02-12T06:54:47;99016.63;;;4.62;100.00
31346;BME280;21711;49.708;18.568;2023-02-12T06:57:14;99022.28;;;4.59;100.00
31346;BME280;21711;49.708;18.568;2023-02-12T07:00:55;99024.13;;;4.65;100.00
31346;BME280;21711;49.708;18.568;2023-02-12T07:03:23;99027.81;;;4.71;100.00
31346;BME280;21711;49.708;18.568;2023-02-12T07:05:50;99027.03;;;4.77;100.00
31346;BME280;21711;49.708;18.568;2023-02-12T07:08:17;99025.91;;;4.65;100.00
31346;BME280;21711;49.708;18.568;2023-02-12T07:10:48;99032.59;;;4.67;100.00
31346;BME280;21711;49.708;18.568;2023-02-12T07:13:16;99032.50;;;4.82;100.00
31346;BME280;21711;49.708;18.568;2023-02-12T07:15:43;99038.34;;;4.84;100.00
31346;BME280;21711;49.708;18.568;2023-02-12T07:18:10;99038.56;;;4.83;100.00
31346;BME280;21711;49.708;18.568;2023-02-12T07:20:37;99045.84;;;4.87;100.00
31346;BME280;21711;49.708;18.568;2023-02-12T07:23:05;99044.75;;;4.75;100.00
31346;BME280;21711;49.708;18.568;2023-02-12T07:25:32;99051.47;;;4.84;100.00
31346;BME280;21711;49.708;18.568;2023-02-12T07:27:59;99043.94;;;5.03;100.00
31346;BME280;21711;49.708;18.568;2023-02-12T07:30:27;99055.09;;;5.12;100.00
31346;BME280;21711;49.708;18.568;2023-02-12T07:32:54;99056.13;;;5.18;100.00
31346;BME280;21711;49.708;18.568;2023-02-12T07:35:21;99062.22;;;5.25;100.00
31346;BME280;21711;49.708;18.568;2023-02-12T07:37:49;99068.44;;;5.17;100.00
31346;BME280;21711;49.708;18.568;2023-02-12T07:43:40;99071.34;;;5.29;100.00
31346;BME280;21711;49.708;18.568;2023-02-12T07:46:17;99073.56;;;5.32;100.00
31346;BME280;21711;49.708;18.568;2023-02-12T07:49:16;99087.63;;;5.24;100.00
31346;BME280;21711;49.708;18.568;2023-02-12T07:51:45;99088.56;;;5.10;100.00
31346;BME280;21711;49.708;18.568;2023-02-12T07:54:13;99087.59;;;5.18;100.00
31346;BME280;21711;49.708;18.568;2023-02-12T07:56:42;99089.38;;;5.46;100.00
31346;BME280;21711;49.708;18.568;2023-02-12T07:59:16;99094.47;;;5.54;100.00
31346;BME280;21711;49.708;18.568;2023-02-12T08:01:51;99094.19;;;5.42;100.00
31346;BME280;21711;49.708;18.568;2023-02-12T08:04:21;99097.41;;;5.37;100.00
31346;BME280;21711;49.708;18.568;2023-02-12T08:06:51;99089.53;;;5.37;100.00
31346;BME280;21711;49.708;18.568;2023-02-12T08:09:24;99091.81;;;5.47;100.00
31346;BME280;21711;49.708;18.568;2023-02-12T08:11:53;99098.22;;;5.87;100.00
31346;BME280;21711;49.708;18.568;2023-02-12T08:14:21;99093.72;;;6.16;100.00
31346;BME280;21711;49.708;18.568;2023-02-12T08:16:49;99095.81;;;6.61;100.00
31346;BME280;21711;49.708;18.568;2023-02-12T08:19:17;99089.88;;;7.33;100.00
31346;BME280;21711;49.708;18.568;2023-02-12T08:21:53;99103.22;;;8.05;100.00
31346;BME280;21711;49.708;18.568;2023-02-12T08:24:26;99112.97;;;9.38;100.00
31346;BME280;21711;49.708;18.568;2023-02-12T08:26:54;99115.84;;;10.23;100.00
31346;BME280;21711;49.708;18.568;2023-02-12T08:29:29;99124.88;;;10.77;100.00
31346;BME280;21711;49.708;18.568;2023-02-12T08:32:02;99120.00;;;10.00;100.00
31346;BME280;21711;49.708;18.568;2023-02-12T08:34:34;99122.97;;;9.55;100.00
31346;BME280;21711;49.708;18.568;2023-02-12T08:37:04;99118.75;;;8.52;100.00
31346;BME280;21711;49.708;18.568;2023-02-12T08:39:33;99117.16;;;7.59;100.00
31346;BME280;21711;49.708;18.568;2023-02-12T08:42:00;99121.03;;;7.50;100.00
31346;BME280;21711;49.708;18.568;2023-02-12T08:44:28;99119.97;;;7.65;100.00
31346;BME280;21711;49.708;18.568;2023-02-12T08:46:56;99128.66;;;8.63;100.00
31346;BME280;21711;49.708;18.568;2023-02-12T08:49:26;99126.06;;;8.50;100.00
31346;BME280;21711;49.708;18.568;2023-02-12T08:51:55;99132.56;;;8.54;100.00
31346;BME280;21711;49.708;18.568;2023-02-12T08:54:27;99124.47;;;8.10;100.00
31346;BME280;21711;49.708;18.568;2023-02-12T08:56:57;99131.41;;;8.36;100.00
31346;BME280;21711;49.708;18.568;2023-02-12T08:59:25;99132.94;;;9.71;100.00
31346;BME280;21711;49.708;18.568;2023-02-12T09:01:53;99134.38;;;10.05;100.00
31346;BME280;21711;49.708;18.568;2023-02-12T09:04:25;99136.88;;;9.99;100.00
31346;BME280;21711;49.708;18.568;2023-02-12T09:06:53;99148.41;;;11.86;100.00
31346;BME280;21711;49.708;18.568;2023-02-12T09:09:20;99155.63;;;12.44;100.00
31346;BME280;21711;49.708;18.568;2023-02-12T09:11:48;99157.13;;;11.46;100.00
31346;BME280;21711;49.708;18.568;2023-02-12T09:14:17;99156.31;;;10.24;100.00
31346;BME280;21711;49.708;18.568;2023-02-12T09:16:45;99160.28;;;9.40;100.00
31346;BME280;21711;49.708;18.568;2023-02-12T09:19:13;99161.78;;;9.10;100.00
31346;BME280;21711;49.708;18.568;2023-02-12T09:21:41;99158.03;;;8.67;100.00
31346;BME280;21711;49.708;18.568;2023-02-12T09:24:09;99149.81;;;8.50;100.00
31346;BME280;21711;49.708;18.568;2023-02-12T09:26:36;99152.44;;;8.04;100.00
31346;BME280;21711;49.708;18.568;2023-02-12T09:29:05;99157.19;;;7.82;100.00
31346;BME280;21711;49.708;18.568;2023-02-12T09:31:32;99169.03;;;7.45;100.00
31346;BME280;21711;49.708;18.568;2023-02-12T09:34:03;99167.84;;;7.14;100.00
31346;BME280;21711;49.708;18.568;2023-02-12T09:36:32;99173.72;;;7.09;100.00
31346;BME280;21711;49.708;18.568;2023-02-12T09:39:00;99175.53;;;7.22;100.00
31346;BME280;21711;49.708;18.568;2023-02-12T09:47:30;99202.25;;;12.86;100.00
31346;BME280;21711;49.708;18.568;2023-02-12T09:52:55;99201.53;;;9.59;100.00
31346;BME280;21711;49.708;18.568;2023-02-12T09:55:29;99201.75;;;9.39;100.00
31346;BME280;21711;49.708;18.568;2023-02-12T09:58:01;99213.16;;;9.07;100.00
31346;BME280;21711;49.708;18.568;2023-02-12T10:00:31;99215.56;;;9.09;100.00
31346;BME280;21711;49.708;18.568;2023-02-12T10:03:04;99214.38;;;9.56;100.00
31346;BME280;21711;49.708;18.568;2023-02-12T10:05:44;99214.22;;;9.95;100.00
31346;BME280;21711;49.708;18.568;2023-02-12T10:08:30;99221.47;;;9.99;100.00
31346;BME280;21711;49.708;18.568;2023-02-12T10:26:14;99229.78;;;11.97;100.00
31346;BME280;21711;49.708;18.568;2023-02-12T10:28:43;99233.09;;;14.17;100.00
31346;BME280;21711;49.708;18.568;2023-02-12T10:31:32;99235.91;;;15.86;56.38
31346;BME280;21711;49.708;18.568;2023-02-12T10:34:25;99242.38;;;17.64;49.78
31346;BME280;21711;49.708;18.568;2023-02-12T10:37:04;99243.97;;;16.92;50.67
31346;BME280;21711;49.708;18.568;2023-02-12T10:39:44;99224.88;;;13.06;61.03
31346;BME280;21711;49.708;18.568;2023-02-12T10:42:34;99230.06;;;12.66;64.48
31346;BME280;21711;49.708;18.568;2023-02-12T10:45:03;99229.56;;;13.33;62.03
31346;BME280;21711;49.708;18.568;2023-02-12T10:47:31;99232.78;;;13.69;61.42
31346;BME280;21711;49.708;18.568;2023-02-12T10:50:12;99219.47;;;13.35;61.97
31346;BME280;21711;49.708;18.568;2023-02-12T10:52:54;99227.75;;;11.52;66.82
31346;BME280;21711;49.708;18.568;2023-02-12T10:55:30;99217.41;;;10.34;71.63
31346;BME280;21711;49.708;18.568;2023-02-12T10:58:01;99212.88;;;10.72;71.36
31346;BME280;21711;49.708;18.568;2023-02-12T11:00:34;99207.25;;;10.00;73.24
31346;BME280;21711;49.708;18.568;2023-02-12T11:05:42;99221.44;;;12.18;67.29
31346;BME280;21711;49.708;18.568;2023-02-12T11:08:35;99228.03;;;13.54;62.13
31346;BME280;21711;49.708;18.568;2023-02-12T11:11:18;99224.88;;;12.30;64.45
31346;BME280;21711;49.708;18.568;2023-02-12T11:14:02;99220.50;;;10.31;70.92
31346;BME280;21711;49.708;18.568;2023-02-12T11:16:37;99225.34;;;9.78;74.86
31346;BME280;21711;49.708;18.568;2023-02-12T11:19:22;99223.59;;;11.56;67.50
31346;BME280;21711;49.708;18.568;2023-02-12T11:21:52;99229.34;;;11.53;66.58
31346;BME280;21711;49.708;18.568;2023-02-12T11:24:33;99233.25;;;11.62;68.05
31346;BME280;21711;49.708;18.568;2023-02-12T11:27:29;99248.59;;;14.70;57.27
31346;BME280;21711;49.708;18.568;2023-02-12T11:32:36;99226.59;;;12.66;60.23
31346;BME280;21711;49.708;18.568;2023-02-12T11:35:23;99235.56;;;11.70;64.12
31346;BME280;21711;49.708;18.568;2023-02-12T11:38:02;99230.63;;;10.84;65.71
31346;BME280;21711;49.708;18.568;2023-02-12T11:40:31;99234.00;;;9.41;72.90
31346;BME280;21711;49.708;18.568;2023-02-12T11:43:07;99229.31;;;8.92;77.57
31346;BME280;21711;49.708;18.568;2023-02-12T11:45:46;99230.22;;;8.79;76.78
31346;BME280;21711;49.708;18.568;2023-02-12T11:48:30;99222.81;;;8.49;78.84
31346;BME280;21711;49.708;18.568;2023-02-12T11:51:03;99224.41;;;8.11;82.29
31346;BME280;21711;49.708;18.568;2023-02-12T11:53:42;99225.31;;;7.71;84.19
31346;BME280;21711;49.708;18.568;2023-02-12T11:56:13;99227.28;;;8.49;81.18
31346;BME280;21711;49.708;18.568;2023-02-12T11:58:41;99231.41;;;9.09;78.20
31346;BME280;21711;49.708;18.568;2023-02-12T12:01:26;99232.47;;;9.01;77.06
31346;BME280;21711;49.708;18.568;2023-02-12T12:04:15;99222.34;;;8.73;78.79
31346;BME280;21711;49.708;18.568;2023-02-12T12:07:10;99228.28;;;8.48;80.06
31346;BME280;21711;49.708;18.568;2023-02-12T12:09:57;99221.19;;;7.96;81.90
31346;BME280;21711;49.708;18.568;2023-02-12T12:18:36;99224.53;;;8.76;77.53
31346;BME280;21711;49.708;18.568;2023-02-12T12:21:46;99223.22;;;8.92;79.20
31346;BME280;21711;49.708;18.568;2023-02-12T12:25:04;99222.41;;;9.42;75.88
31346;BME280;21711;49.708;18.568;2023-02-12T12:30:52;99209.72;;;9.07;77.85
31346;BME280;21711;49.708;18.568;2023-02-12T12:36:29;99225.03;;;10.43;73.24
31346;BME280;21711;49.708;18.568;2023-02-12T12:39:26;99224.72;;;12.49;63.28
31346;BME280;21711;49.708;18.568;2023-02-12T12:53:53;99211.25;;;8.50;76.65
31346;BME280;21711;49.708;18.568;2023-02-12T12:56:35;99205.16;;;8.57;77.50
31346;BME280;21711;49.708;18.568;2023-02-12T13:08:35;99224.09;;;9.11;75.21
31346;BME280;21711;49.708;18.568;2023-02-12T13:11:38;99225.06;;;8.52;77.52
31346;BME280;21711;49.708;18.568;2023-02-12T13:17:38;99234.53;;;9.50;73.61
31346;BME280;21711;49.708;18.568;2023-02-12T13:23:50;99227.75;;;9.36;73.56
31346;BME280;21711;49.708;18.568;2023-02-12T13:26:47;99232.31;;;8.64;74.61
31346;BME280;21711;49.708;18.568;2023-02-12T13:32:48;99230.75;;;7.83;78.29
31346;BME280;21711;49.708;18.568;2023-02-12T13:35:22;99226.13;;;7.04;80.64
31346;BME280;21711;49.708;18.568;2023-02-12T13:37:53;99229.31;;;6.73;83.50
31346;BME280;21711;49.708;18.568;2023-02-12T13:40:24;99232.94;;;6.71;84.03
31346;BME280;21711;49.708;18.568;2023-02-12T13:48:59;99235.66;;;6.99;85.89
31346;BME280;21711;49.708;18.568;2023-02-12T13:51:48;99245.78;;;7.42;83.84
31346;BME280;21711;49.708;18.568;2023-02-12T13:55:01;99241.94;;;7.52;81.43
31346;BME280;21711;49.708;18.568;2023-02-12T13:57:31;99235.84;;;7.65;81.94
31346;BME280;21711;49.708;18.568;2023-02-12T13:59:58;99245.56;;;7.64;80.34
31346;BME280;21711;49.708;18.568;2023-02-12T14:05:35;99238.06;;;7.14;83.20
31346;BME280;21711;49.708;18.568;2023-02-12T14:08:04;99232.22;;;7.18;83.97
31346;BME280;21711;49.708;18.568;2023-02-12T14:11:04;99234.63;;;7.06;86.78
31346;BME280;21711;49.708;18.568;2023-02-12T14:13:35;99229.16;;;7.01;85.35
31346;BME280;21711;49.708;18.568;2023-02-12T14:16:38;99231.75;;;6.81;87.92
31346;BME280;21711;49.708;18.568;2023-02-12T14:24:58;99246.88;;;6.58;93.00
31346;BME280;21711;49.708;18.568;2023-02-12T14:27:49;99237.56;;;6.63;89.60
31346;BME280;21711;49.708;18.568;2023-02-12T14:30:36;99239.31;;;6.42;91.57
31346;BME280;21711;49.708;18.568;2023-02-12T14:35:41;99240.09;;;6.00;95.21
31346;BME280;21711;49.708;18.568;2023-02-12T14:40:45;99241.50;;;6.31;93.57
31346;BME280;21711;49.708;18.568;2023-02-12T14:43:36;99242.53;;;6.30;92.93
31346;BME280;21711;49.708;18.568;2023-02-12T14:48:58;99244.41;;;6.08;95.29
31346;BME280;21711;49.708;18.568;2023-02-12T14:54:40;99242.09;;;5.91;96.33
31346;BME280;21711;49.708;18.568;2023-02-12T14:57:36;99250.94;;;5.84;98.50
31346;BME280;21711;49.708;18.568;2023-02-12T15:00:44;99248.69;;;5.81;97.57
31346;BME280;21711;49.708;18.568;2023-02-12T15:08:34;99246.81;;;6.03;95.51
31346;BME280;21711;49.708;18.568;2023-02-12T15:11:19;99248.78;;;5.94;96.31
31346;BME280;21711;49.708;18.568;2023-02-12T15:22:32;99249.47;;;5.24;100.00
31346;BME280;21711;49.708;18.568;2023-02-12T15:25:15;99253.41;;;5.13;100.00
31346;BME280;21711;49.708;18.568;2023-02-12T15:27:46;99255.75;;;5.30;100.00
31346;BME280;21711;49.708;18.568;2023-02-12T15:30:25;99258.84;;;5.33;100.00
31346;BME280;21711;49.708;18.568;2023-02-12T15:32:56;99248.66;;;5.23;100.00
31346;BME280;21711;49.708;18.568;2023-02-12T15:35:32;99263.97;;;5.20;100.00
31346;BME280;21711;49.708;18.568;2023-02-12T15:38:00;99260.91;;;5.16;100.00
31346;BME280;21711;49.708;18.568;2023-02-12T15:40:30;99256.84;;;4.92;100.00
31346;BME280;21711;49.708;18.568;2023-02-12T15:43:04;99254.22;;;4.92;100.00
31346;BME280;21711;49.708;18.568;2023-02-12T15:45:35;99254.41;;;4.90;100.00
31346;BME280;21711;49.708;18.568;2023-02-12T15:53:51;99263.47;;;4.72;100.00
31346;BME280;21711;49.708;18.568;2023-02-12T15:56:22;99264.66;;;4.70;100.00
31346;BME280;21711;49.708;18.568;2023-02-12T15:58:59;99263.63;;;4.64;100.00
31346;BME280;21711;49.708;18.568;2023-02-12T16:01:31;99265.59;;;4.62;100.00
31346;BME280;21711;49.708;18.568;2023-02-12T16:04:03;99269.91;;;4.70;100.00
31346;BME280;21711;49.708;18.568;2023-02-12T16:06:34;99279.78;;;4.68;100.00
31346;BME280;21711;49.708;18.568;2023-02-12T16:09:29;99275.28;;;4.62;100.00
31346;BME280;21711;49.708;18.568;2023-02-12T16:12:03;99278.44;;;4.57;100.00
31346;BME280;21711;49.708;18.568;2023-02-12T16:17:30;99277.00;;;4.54;100.00
31346;BME280;21711;49.708;18.568;2023-02-12T16:22:44;99284.84;;;4.54;100.00
31346;BME280;21711;49.708;18.568;2023-02-12T16:25:31;99287.59;;;4.31;100.00
31346;BME280;21711;49.708;18.568;2023-02-12T16:28:00;99287.13;;;4.27;100.00
31346;BME280;21711;49.708;18.568;2023-02-12T16:30:39;99293.00;;;4.14;100.00